sensor_id;sensor_type;location;lat;lon;timestamp;P1;durP1;ratioP1;P2;durP2;ratioP2
19883;SDS011;10104;50.732;10.174;2024-03-23T00:55:11;24.20;;;14.23;;
19883;SDS011;10104;50.732;10.174;2024-03-23T00:57:50;19.10;;;12.53;;
19883;SDS011;10104;50.732;10.174;2024-03-23T01:00:29;24.70;;;14.50;;
19883;SDS011;10104;50.732;10.174;2024-03-23T01:03:09;25.77;;;15.67;;
19883;SDS011;10104;50.732;10.174;2024-03-23T01:05:48;29.67;;;16.80;;
19883;SDS011;10104;50.732;10.174;2024-03-23T01:08:27;25.30;;;16.20;;
19883;SDS011;10104;50.732;10.174;2024-03-23T01:11:06;29.17;;;16.20;;
19883;SDS011;10104;50.732;10.174;2024-03-23T01:13:45;21.23;;;14.27;;
19883;SDS011;10104;50.732;10.174;2024-03-23T01:16:25;26.27;;;16.27;;
19883;SDS011;10104;50.732;10.174;2024-03-23T01:19:04;27.87;;;17.70;;
19883;SDS011;10104;50.732;10.174;2024-03-23T01:21:43;29.30;;;16.90;;
19883;SDS011;10104;50.732;10.174;2024-03-23T01:24:22;21.40;;;14.30;;
19883;SDS011;10104;50.732;10.174;2024-03-23T01:27:01;25.23;;;15.30;;
19883;SDS011;10104;50.732;10.174;2024-03-23T01:29:40;26.43;;;16.93;;
19883;SDS011;10104;50.732;10.174;2024-03-23T01:32:20;23.53;;;14.80;;
19883;SDS011;10104;50.732;10.174;2024-03-23T01:34:59;24.57;;;14.93;;
19883;SDS011;10104;50.732;10.174;2024-03-23T01:37:38;25.00;;;15.27;;
19883;SDS011;10104;50.732;10.174;2024-03-23T01:40:17;24.57;;;14.73;;
19883;SDS011;10104;50.732;10.174;2024-03-23T01:42:57;23.93;;;15.30;;
19883;SDS011;10104;50.732;10.174;2024-03-23T01:45:50;24.20;;;16.33;;
19883;SDS011;10104;50.732;10.174;2024-03-23T01:48:29;28.77;;;16.27;;
19883;SDS011;10104;50.732;10.174;2024-03-23T01:51:08;24.37;;;16.00;;
19883;SDS011;10104;50.732;10.174;2024-03-23T01:53:48;24.13;;;15.93;;
19883;SDS011;10104;50.732;10.174;2024-03-23T01:56:27;20.80;;;14.83;;
19883;SDS011;10104;50.732;10.174;2024-03-23T01:59:07;23.23;;;14.43;;
19883;SDS011;10104;50.732;10.174;2024-03-23T02:01:46;24.23;;;15.47;;
19883;SDS011;10104;50.732;10.174;2024-03-23T02:04:25;28.93;;;18.83;;
19883;SDS011;10104;50.732;10.174;2024-03-23T02:07:08;23.17;;;15.63;;
19883;SDS011;10104;50.732;10.174;2024-03-23T02:09:47;27.47;;;16.47;;
19883;SDS011;10104;50.732;10.174;2024-03-23T02:12:26;30.57;;;17.03;;
19883;SDS011;10104;50.732;10.174;2024-03-23T02:15:05;21.67;;;14.70;;
19883;SDS011;10104;50.732;10.174;2024-03-23T02:17:45;24.83;;;15.50;;
19883;SDS011;10104;50.732;10.174;2024-03-23T02:20:24;23.83;;;15.17;;
19883;SDS011;10104;50.732;10.174;2024-03-23T02:23:04;24.03;;;14.97;;
19883;SDS011;10104;50.732;10.174;2024-03-23T02:25:45;26.00;;;15.73;;
19883;SDS011;10104;50.732;10.174;2024-03-23T02:28:24;25.40;;;15.77;;
19883;SDS011;10104;50.732;10.174;2024-03-23T02:31:03;26.60;;;17.00;;
19883;SDS011;10104;50.732;10.174;2024-03-23T02:33:43;23.97;;;15.80;;
19883;SDS011;10104;50.732;10.174;2024-03-23T02:36:22;24.70;;;15.77;;
19883;SDS011;10104;50.732;10.174;2024-03-23T02:39:01;27.40;;;15.60;;
19883;SDS011;10104;50.732;10.174;2024-03-23T02:41:41;28.13;;;16.27;;
19883;SDS011;10104;50.732;10.174;2024-03-23T02:44:20;28.80;;;17.17;;
19883;SDS011;10104;50.732;10.174;2024-03-23T02:47:00;27.30;;;16.77;;
19883;SDS011;10104;50.732;10.174;2024-03-23T02:49:39;27.20;;;17.30;;
19883;SDS011;10104;50.732;10.174;2024-03-23T02:52:18;30.20;;;18.93;;
19883;SDS011;10104;50.732;10.174;2024-03-23T02:54:57;34.63;;;19.13;;
19883;SDS011;10104;50.732;10.174;2024-03-23T02:57:36;29.87;;;18.20;;
19883;SDS011;10104;50.732;10.174;2024-03-23T03:00:15;31.87;;;19.73;;
19883;SDS011;10104;50.732;10.174;2024-03-23T03:02:55;30.00;;;18.43;;
19883;SDS011;10104;50.732;10.174;2024-03-23T03:05:34;34.37;;;20.33;;
19883;SDS011;10104;50.732;10.174;2024-03-23T03:08:13;32.70;;;21.20;;
19883;SDS011;10104;50.732;10.174;2024-03-23T03:10:52;33.30;;;19.63;;
19883;SDS011;10104;50.732;10.174;2024-03-23T03:13:31;36.27;;;19.57;;
19883;SDS011;10104;50.732;10.174;2024-03-23T03:16:11;32.27;;;18.57;;
19883;SDS011;10104;50.732;10.174;2024-03-23T03:18:51;35.60;;;21.77;;
19883;SDS011;10104;50.732;10.174;2024-03-23T03:21:32;37.67;;;20.50;;
19883;SDS011;10104;50.732;10.174;2024-03-23T03:24:11;35.73;;;20.00;;
19883;SDS011;10104;50.732;10.174;2024-03-23T03:26:50;32.47;;;20.23;;
19883;SDS011;10104;50.732;10.174;2024-03-23T03:29:29;29.63;;;18.87;;
19883;SDS011;10104;50.732;10.174;2024-03-23T03:32:14;32.67;;;19.80;;
19883;SDS011;10104;50.732;10.174;2024-03-23T03:34:52;34.70;;;19.73;;
19883;SDS011;10104;50.732;10.174;2024-03-23T03:37:32;31.07;;;19.50;;
19883;SDS011;10104;50.732;10.174;2024-03-23T03:40:11;32.97;;;20.73;;
19883;SDS011;10104;50.732;10.174;2024-03-23T03:42:51;35.33;;;18.53;;
19883;SDS011;10104;50.732;10.174;2024-03-23T03:45:30;28.67;;;19.00;;
19883;SDS011;10104;50.732;10.174;2024-03-23T03:48:09;31.27;;;19.07;;
19883;SDS011;10104;50.732;10.174;2024-03-23T03:50:49;28.20;;;18.70;;
19883;SDS011;10104;50.732;10.174;2024-03-23T03:53:28;29.50;;;18.70;;
19883;SDS011;10104;50.732;10.174;2024-03-23T03:56:07;31.37;;;17.83;;
19883;SDS011;10104;50.732;10.174;2024-03-23T03:58:46;28.20;;;18.33;;
19883;SDS011;10104;50.732;10.174;2024-03-23T04:01:25;31.87;;;18.47;;
19883;SDS011;10104;50.732;10.174;2024-03-23T04:04:04;27.53;;;17.73;;
19883;SDS011;10104;50.732;10.174;2024-03-23T04:06:43;28.67;;;17.77;;
19883;SDS011;10104;50.732;10.174;2024-03-23T04:09:23;29.87;;;17.90;;
19883;SDS011;10104;50.732;10.174;2024-03-23T04:12:02;32.30;;;19.27;;
19883;SDS011;10104;50.732;10.174;2024-03-23T04:14:41;31.93;;;19.43;;
19883;SDS011;10104;50.732;10.174;2024-03-23T04:17:20;27.63;;;18.03;;
19883;SDS011;10104;50.732;10.174;2024-03-23T04:20:00;32.50;;;19.57;;
19883;SDS011;10104;50.732;10.174;2024-03-23T04:22:40;27.07;;;17.63;;
19883;SDS011;10104;50.732;10.174;2024-03-23T04:25:19;27.00;;;17.97;;
19883;SDS011;10104;50.732;10.174;2024-03-23T04:27:58;27.57;;;17.63;;
19883;SDS011;10104;50.732;10.174;2024-03-23T04:30:37;29.50;;;18.50;;
19883;SDS011;10104;50.732;10.174;2024-03-23T04:33:17;30.73;;;19.57;;
19883;SDS011;10104;50.732;10.174;2024-03-23T04:35:56;30.30;;;19.83;;
19883;SDS011;10104;50.732;10.174;2024-03-23T04:38:35;31.20;;;19.20;;
19883;SDS011;10104;50.732;10.174;2024-03-23T04:41:15;33.77;;;20.50;;
19883;SDS011;10104;50.732;10.174;2024-03-23T04:43:54;29.83;;;19.33;;
19883;SDS011;10104;50.732;10.174;2024-03-23T04:46:34;30.63;;;19.60;;
19883;SDS011;10104;50.732;10.174;2024-03-23T04:49:13;33.70;;;17.83;;
19883;SDS011;10104;50.732;10.174;2024-03-23T04:51:52;35.17;;;20.37;;
19883;SDS011;10104;50.732;10.174;2024-03-23T04:54:31;29.97;;;17.87;;
19883;SDS011;10104;50.732;10.174;2024-03-23T04:57:13;28.40;;;18.77;;
19883;SDS011;10104;50.732;10.174;2024-03-23T04:59:52;33.40;;;20.70;;
19883;SDS011;10104;50.732;10.174;2024-03-23T05:02:31;38.43;;;21.87;;
19883;SDS011;10104;50.732;10.174;2024-03-23T05:05:11;37.77;;;21.57;;
19883;SDS011;10104;50.732;10.174;2024-03-23T05:07:51;36.77;;;21.80;;
19883;SDS011;10104;50.732;10.174;2024-03-23T05:10:30;36.17;;;21.40;;
19883;SDS011;10104;50.732;10.174;2024-03-23T05:13:11;37.90;;;22.20;;
19883;SDS011;10104;50.732;10.174;2024-03-23T05:15:52;40.07;;;23.50;;
19883;SDS011;10104;50.732;10.174;2024-03-23T05:18:32;43.20;;;23.73;;
19883;SDS011;10104;50.732;10.174;2024-03-23T05:21:11;43.30;;;24.57;;
19883;SDS011;10104;50.732;10.174;2024-03-23T05:23:50;44.00;;;24.60;;
19883;SDS011;10104;50.732;10.174;2024-03-23T05:26:30;40.33;;;23.63;;
19883;SDS011;10104;50.732;10.174;2024-03-23T05:29:09;30.00;;;16.60;;
19883;SDS011;10104;50.732;10.174;2024-03-23T05:31:52;26.53;;;14.80;;
19883;SDS011;10104;50.732;10.174;2024-03-23T05:34:31;23.17;;;12.77;;
19883;SDS011;10104;50.732;10.174;2024-03-23T05:37:10;23.30;;;12.83;;
19883;SDS011;10104;50.732;10.174;2024-03-23T05:39:49;22.63;;;11.80;;
19883;SDS011;10104;50.732;10.174;2024-03-23T05:42:29;22.17;;;12.00;;
19883;SDS011;10104;50.732;10.174;2024-03-23T05:45:09;23.10;;;11.60;;
19883;SDS011;10104;50.732;10.174;2024-03-23T05:47:48;20.43;;;11.37;;
19883;SDS011;10104;50.732;10.174;2024-03-23T05:50:28;21.33;;;11.40;;
19883;SDS011;10104;50.732;10.174;2024-03-23T05:53:07;19.27;;;10.40;;
19883;SDS011;10104;50.732;10.174;2024-03-23T05:55:46;16.67;;;9.20;;
19883;SDS011;10104;50.732;10.174;2024-03-23T05:58:27;11.10;;;6.30;;
19883;SDS011;10104;50.732;10.174;2024-03-23T06:01:06;8.47;;;4.73;;
19883;SDS011;10104;50.732;10.174;2024-03-23T06:03:46;8.23;;;3.70;;
19883;SDS011;10104;50.732;10.174;2024-03-23T06:06:25;6.03;;;3.23;;
19883;SDS011;10104;50.732;10.174;2024-03-23T06:09:05;5.03;;;2.60;;
19883;SDS011;10104;50.732;10.174;2024-03-23T06:11:44;3.53;;;1.70;;
19883;SDS011;10104;50.732;10.174;2024-03-23T06:14:23;3.00;;;2.20;;
19883;SDS011;10104;50.732;10.174;2024-03-23T06:17:02;3.07;;;1.97;;
19883;SDS011;10104;50.732;10.174;2024-03-23T06:19:41;2.63;;;1.83;;
19883;SDS011;10104;50.732;10.174;2024-03-23T06:22:20;2.90;;;1.67;;
19883;SDS011;10104;50.732;10.174;2024-03-23T06:24:59;4.07;;;1.63;;
19883;SDS011;10104;50.732;10.174;2024-03-23T06:27:38;3.37;;;1.80;;
19883;SDS011;10104;50.732;10.174;2024-03-23T06:30:18;2.67;;;1.73;;
19883;SDS011;10104;50.732;10.174;2024-03-23T06:32:57;3.03;;;1.50;;
19883;SDS011;10104;50.732;10.174;2024-03-23T06:35:36;1.93;;;1.27;;
19883;SDS011;10104;50.732;10.174;2024-03-23T06:38:15;1.70;;;1.10;;
19883;SDS011;10104;50.732;10.174;2024-03-23T06:40:54;1.10;;;0.93;;
19883;SDS011;10104;50.732;10.174;2024-03-23T06:43:33;1.77;;;1.10;;
19883;SDS011;10104;50.732;10.174;2024-03-23T06:46:12;1.50;;;0.90;;
19883;SDS011;10104;50.732;10.174;2024-03-23T06:48:52;0.80;;;0.60;;
19883;SDS011;10104;50.732;10.174;2024-03-23T06:51:32;0.97;;;0.60;;
19883;SDS011;10104;50.732;10.174;2024-03-23T06:54:11;2.13;;;0.70;;
19883;SDS011;10104;50.732;10.174;2024-03-23T06:56:50;1.97;;;0.70;;
19883;SDS011;10104;50.732;10.174;2024-03-23T06:59:30;1.03;;;0.80;;
19883;SDS011;10104;50.732;10.174;2024-03-23T07:02:10;1.43;;;0.60;;
19883;SDS011;10104;50.732;10.174;2024-03-23T07:04:49;0.83;;;0.63;;
19883;SDS011;10104;50.732;10.174;2024-03-23T07:07:28;0.70;;;0.50;;
19883;SDS011;10104;50.732;10.174;2024-03-23T07:10:09;0.50;;;0.50;;
19883;SDS011;10104;50.732;10.174;2024-03-23T07:12:48;0.80;;;0.70;;
19883;SDS011;10104;50.732;10.174;2024-03-23T07:15:27;0.87;;;0.80;;
19883;SDS011;10104;50.732;10.174;2024-03-23T07:18:07;2.93;;;0.63;;
19883;SDS011;10104;50.732;10.174;2024-03-23T07:20:56;1.03;;;0.70;;
19883;SDS011;10104;50.732;10.174;2024-03-23T07:23:37;2.53;;;0.70;;
19883;SDS011;10104;50.732;10.174;2024-03-23T07:26:16;0.57;;;0.40;;
19883;SDS011;10104;50.732;10.174;2024-03-23T07:28:55;0.50;;;0.50;;
19883;SDS011;10104;50.732;10.174;2024-03-23T07:31:34;0.80;;;0.40;;
19883;SDS011;10104;50.732;10.174;2024-03-23T07:34:13;0.63;;;0.50;;
19883;SDS011;10104;50.732;10.174;2024-03-23T07:36:52;0.37;;;0.37;;
19883;SDS011;10104;50.732;10.174;2024-03-23T07:39:32;0.57;;;0.57;;
19883;SDS011;10104;50.732;10.174;2024-03-23T07:42:12;0.50;;;0.40;;
19883;SDS011;10104;50.732;10.174;2024-03-23T07:44:52;1.00;;;0.40;;
19883;SDS011;10104;50.732;10.174;2024-03-23T07:47:32;1.07;;;0.50;;
19883;SDS011;10104;50.732;10.174;2024-03-23T07:50:11;0.73;;;0.60;;
19883;SDS011;10104;50.732;10.174;2024-03-23T07:52:51;0.70;;;0.50;;
19883;SDS011;10104;50.732;10.174;2024-03-23T07:55:30;1.70;;;0.40;;
19883;SDS011;10104;50.732;10.174;2024-03-23T07:58:09;0.60;;;0.30;;
19883;SDS011;10104;50.732;10.174;2024-03-23T08:00:48;0.83;;;0.40;;
19883;SDS011;10104;50.732;10.174;2024-03-23T08:03:28;1.90;;;0.53;;
19883;SDS011;10104;50.732;10.174;2024-03-23T08:06:08;0.87;;;0.30;;
19883;SDS011;10104;50.732;10.174;2024-03-23T08:08:52;0.50;;;0.50;;
19883;SDS011;10104;50.732;10.174;2024-03-23T08:11:38;1.37;;;0.50;;
19883;SDS011;10104;50.732;10.174;2024-03-23T08:14:18;0.90;;;0.50;;
19883;SDS011;10104;50.732;10.174;2024-03-23T08:16:58;0.40;;;0.40;;
19883;SDS011;10104;50.732;10.174;2024-03-23T08:19:38;0.60;;;0.30;;
19883;SDS011;10104;50.732;10.174;2024-03-23T08:22:17;0.30;;;0.30;;
19883;SDS011;10104;50.732;10.174;2024-03-23T08:24:56;0.40;;;0.40;;
19883;SDS011;10104;50.732;10.174;2024-03-23T08:27:35;1.33;;;0.50;;
19883;SDS011;10104;50.732;10.174;2024-03-23T08:30:14;0.70;;;0.63;;
19883;SDS011;10104;50.732;10.174;2024-03-23T08:32:53;0.50;;;0.40;;
19883;SDS011;10104;50.732;10.174;2024-03-23T08:35:32;0.80;;;0.57;;
19883;SDS011;10104;50.732;10.174;2024-03-23T08:38:11;1.10;;;0.63;;
19883;SDS011;10104;50.732;10.174;2024-03-23T08:40:57;4.50;;;1.00;;
19883;SDS011;10104;50.732;10.174;2024-03-23T08:43:40;1.90;;;1.17;;
19883;SDS011;10104;50.732;10.174;2024-03-23T08:46:20;6.23;;;1.10;;
19883;SDS011;10104;50.732;10.174;2024-03-23T08:48:59;2.13;;;1.07;;
19883;SDS011;10104;50.732;10.174;2024-03-23T08:51:38;2.73;;;1.10;;
19883;SDS011;10104;50.732;10.174;2024-03-23T08:54:17;4.10;;;1.30;;
19883;SDS011;10104;50.732;10.174;2024-03-23T08:56:59;2.70;;;1.10;;
19883;SDS011;10104;50.732;10.174;2024-03-23T08:59:38;2.57;;;1.07;;
19883;SDS011;10104;50.732;10.174;2024-03-23T09:02:17;4.27;;;1.37;;
19883;SDS011;10104;50.732;10.174;2024-03-23T09:04:57;5.77;;;1.60;;
19883;SDS011;10104;50.732;10.174;2024-03-23T09:07:42;5.47;;;1.40;;
19883;SDS011;10104;50.732;10.174;2024-03-23T09:10:22;3.00;;;1.30;;
19883;SDS011;10104;50.732;10.174;2024-03-23T09:13:01;2.47;;;1.20;;
19883;SDS011;10104;50.732;10.174;2024-03-23T09:15:47;5.77;;;1.90;;
19883;SDS011;10104;50.732;10.174;2024-03-23T09:18:27;9.50;;;1.60;;
19883;SDS011;10104;50.732;10.174;2024-03-23T09:21:11;5.43;;;1.30;;
19883;SDS011;10104;50.732;10.174;2024-03-23T09:23:51;3.00;;;1.17;;
19883;SDS011;10104;50.732;10.174;2024-03-23T09:26:30;4.13;;;1.73;;
19883;SDS011;10104;50.732;10.174;2024-03-23T09:29:09;5.70;;;2.00;;
19883;SDS011;10104;50.732;10.174;2024-03-23T09:31:48;4.03;;;1.80;;
19883;SDS011;10104;50.732;10.174;2024-03-23T09:34:27;6.00;;;1.70;;
19883;SDS011;10104;50.732;10.174;2024-03-23T09:37:06;9.27;;;1.87;;
19883;SDS011;10104;50.732;10.174;2024-03-23T09:39:45;5.27;;;1.93;;
19883;SDS011;10104;50.732;10.174;2024-03-23T09:42:24;6.43;;;1.77;;
19883;SDS011;10104;50.732;10.174;2024-03-23T09:45:04;5.37;;;1.40;;
19883;SDS011;10104;50.732;10.174;2024-03-23T09:47:48;8.90;;;1.70;;
19883;SDS011;10104;50.732;10.174;2024-03-23T09:50:29;7.53;;;1.60;;
19883;SDS011;10104;50.732;10.174;2024-03-23T09:53:09;3.20;;;1.50;;
19883;SDS011;10104;50.732;10.174;2024-03-23T09:55:53;4.90;;;1.23;;
19883;SDS011;10104;50.732;10.174;2024-03-23T09:58:32;4.20;;;1.60;;
19883;SDS011;10104;50.732;10.174;2024-03-23T10:01:41;6.03;;;1.60;;
19883;SDS011;10104;50.732;10.174;2024-03-23T10:04:39;5.33;;;1.80;;
19883;SDS011;10104;50.732;10.174;2024-03-23T10:07:20;9.13;;;1.87;;
19883;SDS011;10104;50.732;10.174;2024-03-23T10:10:10;4.97;;;1.63;;
19883;SDS011;10104;50.732;10.174;2024-03-23T10:12:49;6.73;;;2.10;;
19883;SDS011;10104;50.732;10.174;2024-03-23T10:15:33;5.03;;;1.97;;
19883;SDS011;10104;50.732;10.174;2024-03-23T10:18:18;3.13;;;1.77;;
19883;SDS011;10104;50.732;10.174;2024-03-23T10:21:10;3.17;;;1.33;;
19883;SDS011;10104;50.732;10.174;2024-03-23T10:23:50;3.13;;;1.47;;
19883;SDS011;10104;50.732;10.174;2024-03-23T10:26:30;5.00;;;1.70;;
19883;SDS011;10104;50.732;10.174;2024-03-23T10:29:09;2.70;;;1.63;;
19883;SDS011;10104;50.732;10.174;2024-03-23T10:31:50;5.43;;;2.00;;
19883;SDS011;10104;50.732;10.174;2024-03-23T10:34:30;3.67;;;1.80;;
19883;SDS011;10104;50.732;10.174;2024-03-23T10:37:09;4.30;;;1.77;;
19883;SDS011;10104;50.732;10.174;2024-03-23T10:39:52;4.93;;;2.40;;
19883;SDS011;10104;50.732;10.174;2024-03-23T10:42:32;4.60;;;2.17;;
19883;SDS011;10104;50.732;10.174;2024-03-23T10:45:12;4.13;;;1.90;;
19883;SDS011;10104;50.732;10.174;2024-03-23T10:47:51;7.37;;;1.93;;
19883;SDS011;10104;50.732;10.174;2024-03-23T10:50:31;6.87;;;2.13;;
19883;SDS011;10104;50.732;10.174;2024-03-23T10:53:11;4.17;;;1.80;;
19883;SDS011;10104;50.732;10.174;2024-03-23T10:55:52;3.30;;;1.60;;
19883;SDS011;10104;50.732;10.174;2024-03-23T10:58:34;3.03;;;1.60;;
19883;SDS011;10104;50.732;10.174;2024-03-23T11:01:17;2.63;;;1.53;;
19883;SDS011;10104;50.732;10.174;2024-03-23T11:03:57;6.97;;;1.80;;
19883;SDS011;10104;50.732;10.174;2024-03-23T11:06:37;5.83;;;1.93;;
19883;SDS011;10104;50.732;10.174;2024-03-23T11:15:12;7.03;;;2.93;;
19883;SDS011;10104;50.732;10.174;2024-03-23T11:18:02;12.50;;;2.50;;
19883;SDS011;10104;50.732;10.174;2024-03-23T11:20:46;7.47;;;2.30;;
19883;SDS011;10104;50.732;10.174;2024-03-23T11:23:29;4.10;;;2.40;;
19883;SDS011;10104;50.732;10.174;2024-03-23T11:26:08;6.10;;;2.33;;
19883;SDS011;10104;50.732;10.174;2024-03-23T11:28:47;7.50;;;2.40;;
19883;SDS011;10104;50.732;10.174;2024-03-23T11:31:27;6.73;;;2.80;;
19883;SDS011;10104;50.732;10.174;2024-03-23T11:34:06;6.07;;;2.80;;
19883;SDS011;10104;50.732;10.174;2024-03-23T11:36:46;6.90;;;2.50;;
19883;SDS011;10104;50.732;10.174;2024-03-23T11:39:26;6.60;;;2.70;;
19883;SDS011;10104;50.732;10.174;2024-03-23T11:42:05;5.70;;;2.00;;
19883;SDS011;10104;50.732;10.174;2024-03-23T11:44:44;5.80;;;3.03;;
19883;SDS011;10104;50.732;10.174;2024-03-23T11:47:24;3.20;;;2.17;;
19883;SDS011;10104;50.732;10.174;2024-03-23T11:50:03;5.83;;;1.90;;
19883;SDS011;10104;50.732;10.174;2024-03-23T11:52:43;4.93;;;2.20;;
19883;SDS011;10104;50.732;10.174;2024-03-23T11:55:22;10.27;;;2.40;;
19883;SDS011;10104;50.732;10.174;2024-03-23T11:58:01;7.50;;;2.33;;
19883;SDS011;10104;50.732;10.174;2024-03-23T12:00:41;4.27;;;2.17;;
19883;SDS011;10104;50.732;10.174;2024-03-23T12:03:21;5.77;;;2.50;;
19883;SDS011;10104;50.732;10.174;2024-03-23T12:06:02;6.73;;;2.90;;
19883;SDS011;10104;50.732;10.174;2024-03-23T12:08:42;5.77;;;2.47;;
19883;SDS011;10104;50.732;10.174;2024-03-23T12:11:21;6.57;;;2.53;;
19883;SDS011;10104;50.732;10.174;2024-03-23T12:14:01;3.83;;;1.73;;
19883;SDS011;10104;50.732;10.174;2024-03-23T12:16:41;6.80;;;2.40;;
19883;SDS011;10104;50.732;10.174;2024-03-23T12:19:20;8.80;;;2.27;;
19883;SDS011;10104;50.732;10.174;2024-03-23T12:22:00;8.47;;;2.43;;
19883;SDS011;10104;50.732;10.174;2024-03-23T12:24:40;6.40;;;2.40;;
19883;SDS011;10104;50.732;10.174;2024-03-23T12:27:24;6.60;;;2.07;;
19883;SDS011;10104;50.732;10.174;2024-03-23T12:30:03;6.67;;;3.30;;
19883;SDS011;10104;50.732;10.174;2024-03-23T12:32:43;5.20;;;2.30;;
19883;SDS011;10104;50.732;10.174;2024-03-23T12:35:22;3.23;;;2.33;;
19883;SDS011;10104;50.732;10.174;2024-03-23T12:38:01;8.17;;;2.33;;
19883;SDS011;10104;50.732;10.174;2024-03-23T12:40:40;4.03;;;1.90;;
19883;SDS011;10104;50.732;10.174;2024-03-23T12:43:20;4.57;;;2.20;;
19883;SDS011;10104;50.732;10.174;2024-03-23T12:45:59;4.50;;;1.90;;
19883;SDS011;10104;50.732;10.174;2024-03-23T12:48:38;8.10;;;2.53;;
19883;SDS011;10104;50.732;10.174;2024-03-23T12:51:17;3.70;;;1.83;;
19883;SDS011;10104;50.732;10.174;2024-03-23T12:53:56;6.40;;;2.20;;
19883;SDS011;10104;50.732;10.174;2024-03-23T12:56:36;6.83;;;2.03;;
19883;SDS011;10104;50.732;10.174;2024-03-23T12:59:15;4.73;;;1.57;;
19883;SDS011;10104;50.732;10.174;2024-03-23T13:01:55;3.87;;;1.77;;
19883;SDS011;10104;50.732;10.174;2024-03-23T13:04:34;3.83;;;1.50;;
19883;SDS011;10104;50.732;10.174;2024-03-23T13:07:13;2.13;;;1.43;;
19883;SDS011;10104;50.732;10.174;2024-03-23T13:09:52;4.50;;;1.60;;
19883;SDS011;10104;50.732;10.174;2024-03-23T13:12:32;2.97;;;1.43;;
19883;SDS011;10104;50.732;10.174;2024-03-23T13:15:12;4.53;;;1.43;;
19883;SDS011;10104;50.732;10.174;2024-03-23T13:17:51;2.60;;;1.37;;
19883;SDS011;10104;50.732;10.174;2024-03-23T13:20:31;5.47;;;1.40;;
19883;SDS011;10104;50.732;10.174;2024-03-23T13:23:10;5.93;;;1.60;;
19883;SDS011;10104;50.732;10.174;2024-03-23T13:25:53;3.97;;;1.67;;
19883;SDS011;10104;50.732;10.174;2024-03-23T13:28:33;3.20;;;1.40;;
19883;SDS011;10104;50.732;10.174;2024-03-23T13:31:13;3.63;;;1.37;;
19883;SDS011;10104;50.732;10.174;2024-03-23T13:33:52;3.60;;;1.43;;
19883;SDS011;10104;50.732;10.174;2024-03-23T13:36:31;1.70;;;0.80;;
19883;SDS011;10104;50.732;10.174;2024-03-23T13:39:10;1.80;;;1.00;;
19883;SDS011;10104;50.732;10.174;2024-03-23T13:41:50;1.70;;;1.00;;
19883;SDS011;10104;50.732;10.174;2024-03-23T13:44:29;1.77;;;0.80;;
19883;SDS011;10104;50.732;10.174;2024-03-23T13:47:09;2.30;;;0.90;;
19883;SDS011;10104;50.732;10.174;2024-03-23T13:49:47;2.13;;;1.10;;
19883;SDS011;10104;50.732;10.174;2024-03-23T13:52:27;3.80;;;1.33;;
19883;SDS011;10104;50.732;10.174;2024-03-23T13:55:07;4.20;;;1.63;;
19883;SDS011;10104;50.732;10.174;2024-03-23T13:57:47;1.83;;;1.20;;
19883;SDS011;10104;50.732;10.174;2024-03-23T14:00:26;3.17;;;1.20;;
19883;SDS011;10104;50.732;10.174;2024-03-23T14:03:05;3.40;;;1.30;;
19883;SDS011;10104;50.732;10.174;2024-03-23T14:05:44;3.53;;;1.70;;
19883;SDS011;10104;50.732;10.174;2024-03-23T14:08:24;6.40;;;1.33;;
19883;SDS011;10104;50.732;10.174;2024-03-23T14:11:03;3.37;;;1.30;;
19883;SDS011;10104;50.732;10.174;2024-03-23T14:13:43;2.37;;;1.00;;
19883;SDS011;10104;50.732;10.174;2024-03-23T14:16:23;2.37;;;1.27;;
19883;SDS011;10104;50.732;10.174;2024-03-23T14:19:02;3.47;;;1.40;;
19883;SDS011;10104;50.732;10.174;2024-03-23T14:21:43;3.13;;;1.03;;
19883;SDS011;10104;50.732;10.174;2024-03-23T14:24:22;1.73;;;1.30;;
19883;SDS011;10104;50.732;10.174;2024-03-23T14:27:03;3.60;;;1.20;;
19883;SDS011;10104;50.732;10.174;2024-03-23T14:29:47;3.20;;;0.87;;
19883;SDS011;10104;50.732;10.174;2024-03-23T14:32:27;1.60;;;0.70;;
19883;SDS011;10104;50.732;10.174;2024-03-23T14:35:08;3.37;;;1.27;;
19883;SDS011;10104;50.732;10.174;2024-03-23T14:37:49;1.47;;;1.10;;
19883;SDS011;10104;50.732;10.174;2024-03-23T14:40:28;2.00;;;0.90;;
19883;SDS011;10104;50.732;10.174;2024-03-23T14:43:07;2.17;;;0.83;;
19883;SDS011;10104;50.732;10.174;2024-03-23T14:46:05;1.33;;;0.70;;
19883;SDS011;10104;50.732;10.174;2024-03-23T14:48:47;2.37;;;0.80;;
19883;SDS011;10104;50.732;10.174;2024-03-23T14:51:27;1.17;;;0.90;;
19883;SDS011;10104;50.732;10.174;2024-03-23T14:54:07;0.90;;;0.80;;
19883;SDS011;10104;50.732;10.174;2024-03-23T14:56:46;1.57;;;1.00;;
19883;SDS011;10104;50.732;10.174;2024-03-23T14:59:26;1.90;;;1.10;;
19883;SDS011;10104;50.732;10.174;2024-03-23T15:02:09;2.87;;;1.20;;
19883;SDS011;10104;50.732;10.174;2024-03-23T15:04:48;3.63;;;1.20;;
19883;SDS011;10104;50.732;10.174;2024-03-23T15:07:27;2.13;;;1.10;;
19883;SDS011;10104;50.732;10.174;2024-03-23T15:10:07;4.23;;;1.70;;
19883;SDS011;10104;50.732;10.174;2024-03-23T15:12:47;3.97;;;1.30;;
19883;SDS011;10104;50.732;10.174;2024-03-23T15:15:26;3.30;;;1.40;;
19883;SDS011;10104;50.732;10.174;2024-03-23T15:18:05;3.33;;;1.30;;
19883;SDS011;10104;50.732;10.174;2024-03-23T15:20:51;6.00;;;1.57;;
19883;SDS011;10104;50.732;10.174;2024-03-23T15:23:34;4.93;;;1.50;;
19883;SDS011;10104;50.732;10.174;2024-03-23T15:26:15;4.70;;;1.33;;
19883;SDS011;10104;50.732;10.174;2024-03-23T15:28:58;4.00;;;1.40;;
19883;SDS011;10104;50.732;10.174;2024-03-23T15:31:37;5.70;;;1.50;;
19883;SDS011;10104;50.732;10.174;2024-03-23T15:34:17;3.53;;;1.47;;
19883;SDS011;10104;50.732;10.174;2024-03-23T15:36:56;2.93;;;1.50;;
19883;SDS011;10104;50.732;10.174;2024-03-23T15:39:35;4.60;;;1.37;;
19883;SDS011;10104;50.732;10.174;2024-03-23T15:42:15;4.03;;;1.33;;
19883;SDS011;10104;50.732;10.174;2024-03-23T15:44:54;3.13;;;1.80;;
19883;SDS011;10104;50.732;10.174;2024-03-23T15:47:34;3.40;;;1.20;;
19883;SDS011;10104;50.732;10.174;2024-03-23T15:50:14;4.93;;;1.47;;
19883;SDS011;10104;50.732;10.174;2024-03-23T15:52:53;4.13;;;1.30;;
19883;SDS011;10104;50.732;10.174;2024-03-23T15:55:34;3.13;;;1.50;;
19883;SDS011;10104;50.732;10.174;2024-03-23T15:58:14;2.83;;;1.20;;
19883;SDS011;10104;50.732;10.174;2024-03-23T16:00:55;3.40;;;1.80;;
19883;SDS011;10104;50.732;10.174;2024-03-23T16:03:41;3.40;;;1.20;;
19883;SDS011;10104;50.732;10.174;2024-03-23T16:06:21;2.47;;;1.10;;
19883;SDS011;10104;50.732;10.174;2024-03-23T16:09:00;2.80;;;1.20;;
19883;SDS011;10104;50.732;10.174;2024-03-23T16:11:39;2.23;;;1.17;;
19883;SDS011;10104;50.732;10.174;2024-03-23T16:14:19;2.57;;;1.50;;
19883;SDS011;10104;50.732;10.174;2024-03-23T16:16:59;1.37;;;0.80;;
19883;SDS011;10104;50.732;10.174;2024-03-23T16:19:38;1.17;;;1.00;;
19883;SDS011;10104;50.732;10.174;2024-03-23T16:22:17;1.60;;;1.00;;
19883;SDS011;10104;50.732;10.174;2024-03-23T16:24:56;1.40;;;0.93;;
19883;SDS011;10104;50.732;10.174;2024-03-23T16:27:35;1.67;;;0.90;;
19883;SDS011;10104;50.732;10.174;2024-03-23T16:30:14;3.80;;;1.10;;
19883;SDS011;10104;50.732;10.174;2024-03-23T16:32:54;2.30;;;1.20;;
19883;SDS011;10104;50.732;10.174;2024-03-23T16:35:33;4.90;;;1.37;;
19883;SDS011;10104;50.732;10.174;2024-03-23T16:38:13;1.87;;;0.90;;
19883;SDS011;10104;50.732;10.174;2024-03-23T16:40:53;1.37;;;0.90;;